createdAt,value
2017-08-26T00:00:02.539Z,14.30
2017-08-26T00:02:37.009Z,14.20
2017-08-26T00:05:05.878Z,14.10
2017-08-26T00:07:34.833Z,14.00
2017-08-26T00:10:03.850Z,14.00
2017-08-26T00:12:32.323Z,14.00
2017-08-26T00:15:00.614Z,14.00
2017-08-26T00:17:28.918Z,14.00
2017-08-26T00:19:57.214Z,14.00
2017-08-26T00:22:25.539Z,14.10
2017-08-26T00:24:53.838Z,14.10
2017-08-26T00:27:22.904Z,14.10
2017-08-26T00:29:51.738Z,14.10
2017-08-26T00:32:21.031Z,14.20
2017-08-26T00:34:49.804Z,14.30
2017-08-26T00:37:19.659Z,14.40
2017-08-26T00:39:48.251Z,14.40
2017-08-26T00:42:16.584Z,14.50
2017-08-26T00:44:45.135Z,14.60
2017-08-26T00:47:13.672Z,14.60
2017-08-26T00:49:42.505Z,14.70
2017-08-26T00:52:11.091Z,14.70
2017-08-26T00:54:40.311Z,14.80
2017-08-26T00:57:09.287Z,14.80
2017-08-26T00:59:38.152Z,14.80
2017-08-26T01:02:07.128Z,14.70
2017-08-26T01:04:36.952Z,14.80
2017-08-26T01:07:11.261Z,14.80
2017-08-26T01:09:40.099Z,14.90
2017-08-26T01:12:09.034Z,14.90
2017-08-26T01:14:37.675Z,14.90
2017-08-26T01:17:06.350Z,15.00
2017-08-26T01:19:35.098Z,15.00
2017-08-26T01:22:03.495Z,15.00
2017-08-26T01:24:31.788Z,15.00
2017-08-26T01:27:00.107Z,15.00
2017-08-26T01:29:28.407Z,15.10
2017-08-26T01:31:57.610Z,15.20
2017-08-26T01:34:25.907Z,15.30
2017-08-26T01:39:34.527Z,15.40
2017-08-26T01:42:06.694Z,15.40
2017-08-26T01:44:41.894Z,15.40
2017-08-26T01:47:16.190Z,15.40
2017-08-26T01:49:49.461Z,15.40
2017-08-26T01:52:20.987Z,15.40
2017-08-26T01:54:52.504Z,15.40
2017-08-26T01:57:20.798Z,15.40
2017-08-26T01:59:49.090Z,15.40
2017-08-26T02:02:17.389Z,15.40
2017-08-26T02:04:45.682Z,15.30
2017-08-26T02:07:13.982Z,15.30
2017-08-26T02:09:42.286Z,15.20
2017-08-26T02:12:10.607Z,15.20
2017-08-26T02:14:38.919Z,15.20
2017-08-26T02:17:07.248Z,15.20
2017-08-26T02:19:35.558Z,15.20
2017-08-26T02:22:03.854Z,15.10
2017-08-26T02:24:32.150Z,15.10
2017-08-26T02:27:00.448Z,15.00
2017-08-26T02:29:28.746Z,14.90
2017-08-26T02:31:57.047Z,14.80
2017-08-26T02:34:25.343Z,14.90
2017-08-26T02:36:53.639Z,14.90
2017-08-26T02:39:21.934Z,14.80
2017-08-26T02:41:50.235Z,14.80
2017-08-26T02:44:18.534Z,14.90
2017-08-26T02:46:46.831Z,14.90
2017-08-26T02:49:15.131Z,15.00
2017-08-26T02:51:43.447Z,15.00
2017-08-26T02:54:11.747Z,15.00
2017-08-26T02:56:40.065Z,15.00
2017-08-26T02:59:08.375Z,15.00
2017-08-26T03:01:36.674Z,15.10
2017-08-26T03:04:04.973Z,15.10
2017-08-26T03:06:33.274Z,15.10
2017-08-26T03:09:01.567Z,15.10
2017-08-26T03:11:29.867Z,15.10
2017-08-26T03:13:58.164Z,15.00
2017-08-26T03:16:26.469Z,15.00
2017-08-26T03:18:54.788Z,15.10
2017-08-26T03:21:23.089Z,15.00
2017-08-26T03:23:51.414Z,15.20
2017-08-26T03:26:19.712Z,15.20
2017-08-26T03:28:48.003Z,15.30
2017-08-26T03:31:16.331Z,15.40
2017-08-26T03:33:44.655Z,15.40
2017-08-26T03:36:12.956Z,15.50
2017-08-26T03:38:41.279Z,15.50
2017-08-26T03:41:10.373Z,15.50
2017-08-26T03:43:38.680Z,15.50
2017-08-26T03:46:07.010Z,15.50
2017-08-26T03:48:35.315Z,15.50
2017-08-26T03:51:03.606Z,15.50
2017-08-26T03:53:31.899Z,15.50
2017-08-26T03:56:00.195Z,15.60
2017-08-26T03:58:28.492Z,15.50
2017-08-26T04:00:56.814Z,15.50
2017-08-26T04:03:25.871Z,15.70
2017-08-26T04:05:54.181Z,15.70
2017-08-26T04:08:22.467Z,16.10
2017-08-26T04:10:50.768Z,16.30
2017-08-26T04:13:19.063Z,16.40
2017-08-26T04:15:48.126Z,16.50
2017-08-26T04:18:16.531Z,16.50
2017-08-26T04:20:44.811Z,16.50
2017-08-26T04:23:13.633Z,16.40
2017-08-26T04:25:41.945Z,16.50
2017-08-26T04:28:10.260Z,16.50
2017-08-26T04:30:38.580Z,16.50
2017-08-26T04:33:06.899Z,16.40
2017-08-26T04:35:35.203Z,16.30
2017-08-26T04:38:03.494Z,16.30
2017-08-26T04:40:31.795Z,16.30
2017-08-26T04:43:00.105Z,16.30
2017-08-26T04:45:28.451Z,16.20
2017-08-26T04:47:56.756Z,16.20
2017-08-26T04:50:25.059Z,16.20
2017-08-26T04:52:53.359Z,16.20
2017-08-26T04:55:21.651Z,16.30
2017-08-26T04:57:49.939Z,16.40
2017-08-26T05:00:18.236Z,16.30
2017-08-26T05:02:46.522Z,16.30
2017-08-26T05:05:14.853Z,16.20
2017-08-26T05:07:43.190Z,16.30
2017-08-26T05:10:11.510Z,16.20
2017-08-26T05:12:39.925Z,16.30
2017-08-26T05:15:08.232Z,16.30
2017-08-26T05:17:36.565Z,16.30
2017-08-26T05:20:04.863Z,16.30
2017-08-26T05:22:33.180Z,16.30
2017-08-26T05:25:01.503Z,16.20
2017-08-26T05:27:29.823Z,16.20
2017-08-26T05:29:58.106Z,16.20
2017-08-26T05:32:26.440Z,16.20
2017-08-26T05:34:54.729Z,16.30
2017-08-26T05:37:23.043Z,16.30
2017-08-26T05:39:51.355Z,16.40
2017-08-26T05:42:20.352Z,16.40
2017-08-26T05:44:48.674Z,16.40
2017-08-26T05:47:16.986Z,16.50
2017-08-26T05:49:45.276Z,16.50
2017-08-26T05:52:13.603Z,16.40
2017-08-26T05:54:41.897Z,16.40
2017-08-26T05:57:10.261Z,16.40
2017-08-26T05:59:38.586Z,16.50
2017-08-26T06:02:07.177Z,16.50
2017-08-26T06:04:36.175Z,16.60
2017-08-26T06:07:04.554Z,16.70
2017-08-26T06:09:32.864Z,16.70
2017-08-26T06:12:01.992Z,16.90
2017-08-26T06:14:30.347Z,16.90
2017-08-26T06:16:59.404Z,17.10
2017-08-26T06:19:27.684Z,17.10
2017-08-26T06:21:55.976Z,17.10
2017-08-26T06:24:24.264Z,17.20
2017-08-26T06:26:52.547Z,17.30
2017-08-26T06:29:21.393Z,17.40
2017-08-26T06:31:50.121Z,17.50
2017-08-26T06:34:19.759Z,17.90
2017-08-26T06:36:48.500Z,17.90
2017-08-26T06:39:17.383Z,17.80
2017-08-26T06:41:46.735Z,18.10
2017-08-26T06:44:15.715Z,18.10
2017-08-26T06:46:44.760Z,18.20
2017-08-26T06:49:13.816Z,18.10
2017-08-26T06:51:42.210Z,18.10
2017-08-26T06:54:10.503Z,18.20
2017-08-26T06:56:38.946Z,18.10
2017-08-26T06:59:07.308Z,18.20
2017-08-26T07:01:35.599Z,18.10
2017-08-26T07:04:04.389Z,17.90
2017-08-26T07:06:32.822Z,17.90
2017-08-26T07:09:01.107Z,17.90
2017-08-26T07:11:29.390Z,17.90
2017-08-26T07:13:57.690Z,17.90
2017-08-26T07:16:25.982Z,18.00
2017-08-26T07:18:54.278Z,18.10
2017-08-26T07:21:22.573Z,18.20
2017-08-26T07:23:50.902Z,18.50
2017-08-26T07:26:19.187Z,18.70
2017-08-26T07:28:47.462Z,18.70
2017-08-26T07:31:15.780Z,18.80
2017-08-26T07:33:44.064Z,19.10
2017-08-26T07:36:12.370Z,19.10
2017-08-26T07:38:41.424Z,19.40
2017-08-26T07:41:09.720Z,19.50
2017-08-26T07:43:38.015Z,19.60
2017-08-26T07:46:06.303Z,19.70
2017-08-26T07:48:34.606Z,19.70
2017-08-26T07:51:03.115Z,19.90
2017-08-26T07:53:31.475Z,19.90
2017-08-26T07:55:59.769Z,20.00
2017-08-26T07:58:28.059Z,20.10
2017-08-26T08:00:56.360Z,20.20
2017-08-26T08:03:24.652Z,20.10
2017-08-26T08:05:52.939Z,19.90
2017-08-26T08:08:21.316Z,19.70
2017-08-26T08:10:49.631Z,19.60
2017-08-26T08:13:18.682Z,19.60
2017-08-26T08:15:47.023Z,19.60
2017-08-26T08:18:15.314Z,19.70
2017-08-26T08:20:43.663Z,19.60
2017-08-26T08:23:12.090Z,19.70
2017-08-26T08:25:40.600Z,19.70
2017-08-26T08:28:08.947Z,19.80
2017-08-26T08:30:37.477Z,19.90
2017-08-26T08:33:06.601Z,20.50
2017-08-26T08:35:34.888Z,20.50
2017-08-26T08:38:03.380Z,20.70
2017-08-26T08:40:32.433Z,21.00
2017-08-26T08:43:00.744Z,21.00
2017-08-26T08:45:29.027Z,21.20
2017-08-26T08:47:57.331Z,21.30
2017-08-26T08:50:25.622Z,21.80
2017-08-26T08:52:53.948Z,21.60
2017-08-26T08:55:22.354Z,21.30
2017-08-26T08:57:50.659Z,21.30
2017-08-26T09:00:18.975Z,20.90
2017-08-26T09:02:47.264Z,20.70
2017-08-26T09:05:15.547Z,20.80
2017-08-26T09:07:43.834Z,20.70
2017-08-26T09:10:12.880Z,21.30
2017-08-26T09:12:41.201Z,21.40
2017-08-26T09:15:09.518Z,21.40
2017-08-26T09:17:37.866Z,21.50
2017-08-26T09:20:06.154Z,21.30
2017-08-26T09:22:34.434Z,21.60
2017-08-26T09:25:02.971Z,21.90
2017-08-26T09:27:31.260Z,22.30
2017-08-26T09:29:59.554Z,22.40
2017-08-26T09:32:27.853Z,22.50
2017-08-26T09:34:56.162Z,22.40
2017-08-26T09:37:24.455Z,22.40
2017-08-26T09:39:53.516Z,22.20
2017-08-26T09:42:21.799Z,22.20
2017-08-26T09:44:50.083Z,22.30
2017-08-26T09:47:18.367Z,22.40
2017-08-26T09:49:46.648Z,22.20
2017-08-26T09:52:14.967Z,22.10
2017-08-26T09:54:43.270Z,22.50
2017-08-26T09:57:11.589Z,22.60
2017-08-26T09:59:40.655Z,21.70
2017-08-26T10:02:09.053Z,21.60
2017-08-26T10:04:37.351Z,21.70
2017-08-26T10:07:05.648Z,21.60
2017-08-26T10:09:34.007Z,21.80
2017-08-26T10:12:02.315Z,22.40
2017-08-26T10:14:30.614Z,22.20
2017-08-26T10:16:58.917Z,22.40
2017-08-26T10:19:27.976Z,22.20
2017-08-26T10:21:56.265Z,22.20
2017-08-26T10:24:24.555Z,22.60
2017-08-26T10:26:52.844Z,22.60
2017-08-26T10:29:21.140Z,22.50
2017-08-26T10:31:49.437Z,22.90
2017-08-26T10:34:17.845Z,23.30
2017-08-26T10:36:47.034Z,23.80
2017-08-26T10:39:15.833Z,23.80
2017-08-26T10:41:44.589Z,23.50
2017-08-26T10:44:12.895Z,23.40
2017-08-26T10:46:41.203Z,23.10
2017-08-26T10:49:09.506Z,22.60
2017-08-26T10:51:37.831Z,22.80
2017-08-26T10:54:06.989Z,22.40
2017-08-26T10:56:35.332Z,22.40
2017-08-26T10:59:03.646Z,22.40
2017-08-26T11:01:32.116Z,22.70
2017-08-26T11:04:00.470Z,22.70
2017-08-26T11:06:28.765Z,22.80
2017-08-26T11:08:57.059Z,23.30
2017-08-26T11:11:25.360Z,23.50
2017-08-26T11:13:53.642Z,24.10
2017-08-26T11:16:21.932Z,24.20
2017-08-26T11:18:50.615Z,24.10
2017-08-26T11:21:18.992Z,24.70
2017-08-26T11:23:47.789Z,24.50
2017-08-26T11:26:16.100Z,24.40
2017-08-26T11:28:44.400Z,24.90
2017-08-26T11:31:12.761Z,24.60
2017-08-26T11:33:41.066Z,24.80
2017-08-26T11:36:10.188Z,23.80
2017-08-26T11:38:39.604Z,23.30
2017-08-26T11:41:08.852Z,23.40
2017-08-26T11:43:37.178Z,23.40
2017-08-26T11:46:05.478Z,23.20
2017-08-26T11:48:33.805Z,23.50
2017-08-26T11:51:02.138Z,23.30
2017-08-26T11:53:30.428Z,23.40
2017-08-26T11:55:58.718Z,22.80
2017-08-26T11:58:27.067Z,23.00
2017-08-26T12:00:55.479Z,23.20
2017-08-26T12:03:23.772Z,23.20
2017-08-26T12:05:52.089Z,23.40
2017-08-26T12:08:20.391Z,23.30
2017-08-26T12:10:48.687Z,23.10
2017-08-26T12:13:17.052Z,22.80
2017-08-26T12:15:45.426Z,22.30
2017-08-26T12:18:13.814Z,22.30
2017-08-26T12:20:42.218Z,22.20
2017-08-26T12:23:10.578Z,22.00
2017-08-26T12:25:38.937Z,22.10
2017-08-26T12:28:07.495Z,22.30
2017-08-26T12:30:35.804Z,21.90
2017-08-26T12:33:04.153Z,21.90
2017-08-26T12:35:32.439Z,22.20
2017-08-26T12:38:00.731Z,22.40
2017-08-26T12:40:29.145Z,23.40
2017-08-26T12:42:57.451Z,23.40
2017-08-26T12:45:25.743Z,23.80
2017-08-26T12:47:54.022Z,23.80
2017-08-26T12:50:22.360Z,24.00
2017-08-26T12:52:50.646Z,23.80
2017-08-26T12:55:18.946Z,24.30
2017-08-26T12:57:47.234Z,24.10
2017-08-26T13:00:15.519Z,24.40
2017-08-26T13:02:43.851Z,24.90
2017-08-26T13:05:12.242Z,25.20
2017-08-26T13:07:40.757Z,24.80
2017-08-26T13:10:09.078Z,24.90
2017-08-26T13:12:37.407Z,25.00
2017-08-26T13:15:05.698Z,24.90
2017-08-26T13:17:34.091Z,24.90
2017-08-26T13:20:02.663Z,24.70
2017-08-26T13:22:30.955Z,24.80
2017-08-26T13:24:59.306Z,25.40
2017-08-26T13:27:28.527Z,24.90
2017-08-26T13:29:56.899Z,24.80
2017-08-26T13:32:25.961Z,24.00
2017-08-26T13:34:54.459Z,23.90
2017-08-26T13:37:22.754Z,23.60
2017-08-26T13:39:51.051Z,23.40
2017-08-26T13:42:19.421Z,24.00
2017-08-26T13:44:47.723Z,23.50
2017-08-26T13:47:16.036Z,23.90
2017-08-26T13:49:44.332Z,24.10
2017-08-26T13:52:12.633Z,23.50
2017-08-26T13:54:41.725Z,24.00
2017-08-26T13:57:10.806Z,24.10
2017-08-26T13:59:39.533Z,24.10
2017-08-26T14:02:07.858Z,24.60
2017-08-26T14:04:36.190Z,24.60
2017-08-26T14:07:04.496Z,24.40
2017-08-26T14:09:32.782Z,23.90
2017-08-26T14:12:01.083Z,23.60
2017-08-26T14:14:29.375Z,23.10
2017-08-26T14:16:57.710Z,23.30
2017-08-26T14:19:26.148Z,23.30
2017-08-26T14:21:54.498Z,23.20
2017-08-26T14:24:22.800Z,23.10
2017-08-26T14:26:51.102Z,23.00
2017-08-26T14:29:19.403Z,23.30
2017-08-26T14:31:47.723Z,23.50
2017-08-26T14:34:16.018Z,23.80
2017-08-26T14:36:44.311Z,23.90
2017-08-26T14:39:12.652Z,23.60
2017-08-26T14:41:41.118Z,24.10
2017-08-26T14:44:09.530Z,24.60
2017-08-26T14:46:37.871Z,24.70
2017-08-26T14:49:06.255Z,24.50
2017-08-26T14:51:34.554Z,24.10
2017-08-26T14:54:02.876Z,23.90
2017-08-26T14:56:31.299Z,23.60
2017-08-26T14:58:59.591Z,23.50
2017-08-26T15:01:28.602Z,23.10
2017-08-26T15:03:57.280Z,22.90
2017-08-26T15:06:25.615Z,22.80
2017-08-26T15:08:53.912Z,22.70
2017-08-26T15:11:22.208Z,22.60
2017-08-26T15:13:50.502Z,22.70
2017-08-26T15:16:18.802Z,22.60
2017-08-26T15:18:47.860Z,22.50
2017-08-26T15:21:17.390Z,22.00
2017-08-26T15:23:45.692Z,22.00
2017-08-26T15:26:13.986Z,21.80
2017-08-26T15:28:42.310Z,21.80
2017-08-26T15:31:10.630Z,21.80
2017-08-26T15:33:38.949Z,21.90
2017-08-26T15:36:07.343Z,21.90
2017-08-26T15:38:35.667Z,21.80
2017-08-26T15:41:03.971Z,22.10
2017-08-26T15:43:32.336Z,22.40
2017-08-26T15:46:00.702Z,22.40
2017-08-26T15:48:28.999Z,22.60
2017-08-26T15:50:57.368Z,22.70
2017-08-26T15:53:25.686Z,22.40
2017-08-26T15:55:53.987Z,22.60
2017-08-26T15:58:22.291Z,22.30
2017-08-26T16:00:50.594Z,22.20
2017-08-26T16:03:18.890Z,22.10
2017-08-26T16:05:47.957Z,21.80
2017-08-26T16:08:16.300Z,21.80
2017-08-26T16:10:45.356Z,22.00
2017-08-26T16:13:13.682Z,21.90
2017-08-26T16:15:42.793Z,21.70
2017-08-26T16:18:11.139Z,21.70
2017-08-26T16:20:40.068Z,21.60
2017-08-26T16:23:08.449Z,21.50
2017-08-26T16:25:36.787Z,21.30
2017-08-26T16:28:05.100Z,21.10
2017-08-26T16:30:33.396Z,21.10
2017-08-26T16:33:01.700Z,21.00
2017-08-26T16:35:30.770Z,20.80
2017-08-26T16:37:59.090Z,20.80
2017-08-26T16:40:28.152Z,20.80
2017-08-26T16:42:56.665Z,20.80
2017-08-26T16:45:24.968Z,20.80
2017-08-26T16:47:53.270Z,20.60
2017-08-26T16:50:22.387Z,20.50
2017-08-26T16:52:50.678Z,20.50
2017-08-26T16:55:19.772Z,20.50
2017-08-26T16:57:48.062Z,20.50
2017-08-26T17:00:17.141Z,20.50
2017-08-26T17:02:45.445Z,20.50
2017-08-26T17:05:13.751Z,20.70
2017-08-26T17:07:42.048Z,20.70
2017-08-26T17:10:10.351Z,20.70
2017-08-26T17:12:38.646Z,20.40
2017-08-26T17:15:06.951Z,20.30
2017-08-26T17:17:35.383Z,20.40
2017-08-26T17:20:03.685Z,20.40
2017-08-26T17:22:31.981Z,20.30
2017-08-26T17:25:00.290Z,20.30
2017-08-26T17:27:28.606Z,20.10
2017-08-26T17:29:57.688Z,20.00
2017-08-26T17:32:25.984Z,20.00
2017-08-26T17:34:54.316Z,20.00
2017-08-26T17:37:22.638Z,20.00
2017-08-26T17:39:50.936Z,20.10
2017-08-26T17:42:19.235Z,20.10
2017-08-26T17:44:47.534Z,20.10
2017-08-26T17:47:15.873Z,20.10
2017-08-26T17:49:44.173Z,20.10
2017-08-26T17:52:12.503Z,20.10
2017-08-26T17:54:40.812Z,20.00
2017-08-26T17:57:09.105Z,19.90
2017-08-26T17:59:37.406Z,19.70
2017-08-26T18:02:05.695Z,19.60
2017-08-26T18:04:33.995Z,19.60
2017-08-26T18:07:02.286Z,19.40
2017-08-26T18:09:30.598Z,19.30
2017-08-26T18:11:58.896Z,19.20
2017-08-26T18:14:27.217Z,19.10
2017-08-26T18:16:55.523Z,19.10
2017-08-26T18:19:23.827Z,19.10
2017-08-26T18:21:52.167Z,19.00
2017-08-26T18:24:20.463Z,18.90
2017-08-26T18:26:48.764Z,18.90
2017-08-26T18:29:17.070Z,18.90
2017-08-26T18:31:45.495Z,18.90
2017-08-26T18:34:13.795Z,18.80
2017-08-26T18:36:42.918Z,18.70
2017-08-26T18:39:11.215Z,18.70
2017-08-26T18:41:39.536Z,18.80
2017-08-26T18:44:07.833Z,18.70
2017-08-26T18:51:12.810Z,18.60
2017-08-26T18:54:43.942Z,18.50
2017-08-26T18:57:12.459Z,18.50
2017-08-26T18:59:40.770Z,18.40
2017-08-26T19:02:09.069Z,18.50
2017-08-26T19:07:12.003Z,18.60
2017-08-26T19:09:40.378Z,18.60
2017-08-26T19:12:08.686Z,18.60
2017-08-26T19:14:37.202Z,18.70
2017-08-26T19:17:05.490Z,18.70
2017-08-26T19:19:33.792Z,18.60
2017-08-26T19:22:02.991Z,18.60
2017-08-26T19:24:31.284Z,18.60
2017-08-26T19:27:00.373Z,18.40
2017-08-26T19:29:28.666Z,18.40
2017-08-26T19:31:57.156Z,18.40
2017-08-26T19:34:25.463Z,18.40
2017-08-26T19:36:54.871Z,18.30
2017-08-26T19:39:23.164Z,18.30
2017-08-26T19:41:52.240Z,18.40
2017-08-26T19:44:20.555Z,18.40
2017-08-26T19:46:49.647Z,18.40
2017-08-26T19:49:17.986Z,18.40
2017-08-26T19:51:46.336Z,18.30
2017-08-26T19:54:15.402Z,18.20
2017-08-26T19:56:43.839Z,18.20
2017-08-26T19:59:12.300Z,18.20
2017-08-26T20:01:41.100Z,18.20
2017-08-26T20:04:09.398Z,18.20
2017-08-26T20:06:37.718Z,18.20
2017-08-26T20:09:07.116Z,18.10
2017-08-26T20:11:35.435Z,18.10
2017-08-26T20:14:03.729Z,18.10
2017-08-26T20:16:32.052Z,18.00
2017-08-26T20:19:00.343Z,18.00
2017-08-26T20:21:28.660Z,18.00
2017-08-26T20:23:56.955Z,17.90
2017-08-26T20:26:25.284Z,17.80
2017-08-26T20:28:53.571Z,17.80
2017-08-26T20:31:21.902Z,17.70
2017-08-26T20:33:50.203Z,17.60
2017-08-26T20:36:18.495Z,17.60
2017-08-26T20:38:47.422Z,17.50
2017-08-26T20:41:15.724Z,17.50
2017-08-26T20:43:44.013Z,17.50
2017-08-26T20:46:12.324Z,17.40
2017-08-26T20:48:40.658Z,17.40
2017-08-26T20:51:09.761Z,17.20
2017-08-26T20:53:38.082Z,17.20
2017-08-26T20:56:06.375Z,17.10
2017-08-26T20:58:34.701Z,17.00
2017-08-26T21:01:02.995Z,17.00
2017-08-26T21:03:31.342Z,16.90
2017-08-26T21:05:59.639Z,16.80
2017-08-26T21:08:28.692Z,16.60
2017-08-26T21:10:57.019Z,16.60
2017-08-26T21:13:25.322Z,16.50
2017-08-26T21:15:53.634Z,16.50
2017-08-26T21:18:21.955Z,16.40
2017-08-26T21:20:50.243Z,16.30
2017-08-26T21:23:18.566Z,16.30
2017-08-26T21:25:47.064Z,16.20
2017-08-26T21:28:15.406Z,16.10
2017-08-26T21:30:43.697Z,15.90
2017-08-26T21:33:12.026Z,15.80
2017-08-26T21:35:40.314Z,15.80
2017-08-26T21:38:08.604Z,15.80
2017-08-26T21:40:36.920Z,15.70
2017-08-26T21:43:05.218Z,15.70
2017-08-26T21:45:33.544Z,15.70
2017-08-26T21:48:01.860Z,15.60
2017-08-26T21:50:30.188Z,15.40
2017-08-26T21:52:58.586Z,15.30
2017-08-26T21:55:26.975Z,15.30
2017-08-26T21:57:55.309Z,15.20
2017-08-26T22:00:23.642Z,15.10
2017-08-26T22:02:51.970Z,15.10
2017-08-26T22:05:21.031Z,15.10
2017-08-26T22:07:49.321Z,15.10
2017-08-26T22:10:17.633Z,15.00
2017-08-26T22:12:45.971Z,14.90
2017-08-26T22:15:14.294Z,14.80
2017-08-26T22:17:42.595Z,14.90
2017-08-26T22:20:10.915Z,14.90
2017-08-26T22:22:39.221Z,14.80
2017-08-26T22:25:07.564Z,14.80
2017-08-26T22:27:35.946Z,14.80
2017-08-26T22:30:04.250Z,14.70
2017-08-26T22:32:32.580Z,14.60
2017-08-26T22:35:00.891Z,14.60
2017-08-26T22:37:29.215Z,14.60
2017-08-26T22:39:57.603Z,14.50
2017-08-26T22:42:25.938Z,14.40
2017-08-26T22:44:54.226Z,14.40
2017-08-26T22:47:22.523Z,14.40
2017-08-26T22:49:50.823Z,14.30
2017-08-26T22:52:19.123Z,14.30
2017-08-26T22:54:47.447Z,14.20
2017-08-26T22:57:16.513Z,14.20
2017-08-26T22:59:44.833Z,14.10
2017-08-26T23:02:13.716Z,14.20
2017-08-26T23:04:42.012Z,14.10
2017-08-26T23:07:10.398Z,14.10
2017-08-26T23:09:38.739Z,14.00
2017-08-26T23:12:07.082Z,14.00
2017-08-26T23:14:35.442Z,13.90
2017-08-26T23:17:03.991Z,13.90
2017-08-26T23:19:33.051Z,13.80
2017-08-26T23:22:01.350Z,13.70
2017-08-26T23:24:29.656Z,13.70
2017-08-26T23:26:57.982Z,13.60
2017-08-26T23:29:27.051Z,13.60
2017-08-26T23:31:55.374Z,13.60
2017-08-26T23:34:23.683Z,13.50
2017-08-26T23:36:51.983Z,13.50
2017-08-26T23:39:20.271Z,13.50
2017-08-26T23:41:48.566Z,13.50
2017-08-26T23:44:16.863Z,13.40
2017-08-26T23:46:45.280Z,13.40
2017-08-26T23:49:13.584Z,13.30
2017-08-26T23:51:41.911Z,13.30
2017-08-26T23:54:10.207Z,13.20
2017-08-26T23:56:39.271Z,13.10
2017-08-26T23:59:09.182Z,13.00
